Airfield :
LOGIN :

Register | Disclaimer

   EN    FR    IT 

 










Legend :    VFR   Marginal VFR   IFR   Intensive IFR   Very Intensive IFR
Visi :
Ceiling :
>= 8 km
>= 3000ft
5 to 8 km
1000 to 3000 ft
1500m to 5 km
500 to 1000 ft
800 to 1500m
200 to 500 ft
< 800m
< 200 ft
Symbols :   Thunderstorms  Fog  Heavy snow  Heavy precipitations  Wind > 20 kt
SIGMETs :     Misc.  Thunderstorms  Icing  Turbulence  Mountain Waves  Volcanic Ashes






- Airport Elevation : 308 ft
- IATA code : MHG


EDFM - Mannheim-City

CURRENT METAR :
  • 170050Z AUTO 17004KT 140V210 9999 BKN025/// OVC048/// 17/15 Q1012

EXPIRED METARs :
  • 170020Z AUTO 18004KT 150V220 9999 FEW024/// BKN034/// OVC072/// 17/14 Q1012
  • 162350Z AUTO 21006KT 170V240 9999 FEW025/// BKN038/// OVC085/// 17/14 Q1012
  • 162320Z AUTO 18006KT 9999 FEW037/// OVC089/// 17/14 Q1012
  • 162250Z AUTO 19005KT 9999 FEW053/// OVC093/// 17/14 Q1012
  • 162220Z AUTO 20007KT 9999 FEW047/// OVC092/// 18/13 Q1012
  • 162150Z AUTO 21006KT 9999 FEW042/// OVC097/// 18/13 Q1012
  • 162120Z AUTO 20006KT 160V230 9999 FEW042/// SCT048/// OVC099/// 18/12 Q1012
  • 162050Z AUTO 16003KT 9999 SCT050/// BKN068/// OVC089/// 19/12 Q1011
  • 162020Z AUTO VRB02KT 9999 FEW061/// OVC110/// 19/12 Q1011

Expired Forecast.



MET'MAP, your aeronautical weather chart ! - Copyright ORBIFLY December 2007 - Disclaimer

ORBIFLY MET'MAP TEAM :

Programming & Development : Alexandra Zaïnal
Original concept : Baudouin d'Aumeries
Technical & hardware support : Manuel Goepfert
Assistance : Marc-Olivier Méhu




SOURCES & CREDITS :

   NOAA